sensor_id;sensor_type;location;lat;lon;timestamp;P1;durP1;ratioP1;P2;durP2;ratioP2
14187;SDS011;7175;51.978;5.330;2023-02-01T00:01:25;40.40;;;37.80;;
14187;SDS011;7175;51.978;5.330;2023-02-01T00:03:54;38.60;;;36.10;;
14187;SDS011;7175;51.978;5.330;2023-02-01T00:06:22;39.80;;;37.30;;
14187;SDS011;7175;51.978;5.330;2023-02-01T00:08:52;39.50;;;37.00;;
14187;SDS011;7175;51.978;5.330;2023-02-01T00:11:20;39.03;;;36.53;;
14187;SDS011;7175;51.978;5.330;2023-02-01T00:13:49;41.00;;;38.40;;
14187;SDS011;7175;51.978;5.330;2023-02-01T00:16:20;40.07;;;37.57;;
14187;SDS011;7175;51.978;5.330;2023-02-01T00:18:50;39.87;;;37.37;;
14187;SDS011;7175;51.978;5.330;2023-02-01T00:21:20;40.57;;;38.00;;
14187;SDS011;7175;51.978;5.330;2023-02-01T00:23:48;39.77;;;37.27;;
14187;SDS011;7175;51.978;5.330;2023-02-01T00:26:17;41.57;;;38.97;;
14187;SDS011;7175;51.978;5.330;2023-02-01T00:28:46;40.87;;;38.30;;
14187;SDS011;7175;51.978;5.330;2023-02-01T00:31:14;40.67;;;38.17;;
14187;SDS011;7175;51.978;5.330;2023-02-01T00:33:46;42.03;;;39.43;;
14187;SDS011;7175;51.978;5.330;2023-02-01T00:36:14;42.83;;;40.23;;
14187;SDS011;7175;51.978;5.330;2023-02-01T00:38:43;35.70;;;33.40;;
14187;SDS011;7175;51.978;5.330;2023-02-01T00:41:12;44.27;;;41.53;;
14187;SDS011;7175;51.978;5.330;2023-02-01T00:43:42;40.90;;;38.30;;
14187;SDS011;7175;51.978;5.330;2023-02-01T00:46:11;45.20;;;42.40;;
14187;SDS011;7175;51.978;5.330;2023-02-01T00:48:40;46.33;;;43.53;;
14187;SDS011;7175;51.978;5.330;2023-02-01T00:51:10;41.40;;;38.80;;
14187;SDS011;7175;51.978;5.330;2023-02-01T00:53:40;40.73;;;38.17;;
14187;SDS011;7175;51.978;5.330;2023-02-01T00:56:10;36.40;;;34.00;;
14187;SDS011;7175;51.978;5.330;2023-02-01T00:58:39;37.27;;;34.87;;
14187;SDS011;7175;51.978;5.330;2023-02-01T01:01:12;41.40;;;38.40;;
14187;SDS011;7175;51.978;5.330;2023-02-01T01:03:43;37.57;;;35.10;;
14187;SDS011;7175;51.978;5.330;2023-02-01T01:06:15;41.30;;;38.40;;
14187;SDS011;7175;51.978;5.330;2023-02-01T01:08:44;40.87;;;38.17;;
14187;SDS011;7175;51.978;5.330;2023-02-01T01:11:14;42.37;;;39.67;;
14187;SDS011;7175;51.978;5.330;2023-02-01T01:13:46;43.50;;;40.70;;
14187;SDS011;7175;51.978;5.330;2023-02-01T01:16:15;43.57;;;40.77;;
14187;SDS011;7175;51.978;5.330;2023-02-01T01:18:43;45.40;;;42.50;;
14187;SDS011;7175;51.978;5.330;2023-02-01T01:21:13;46.33;;;43.43;;
14187;SDS011;7175;51.978;5.330;2023-02-01T01:23:44;46.57;;;43.57;;
14187;SDS011;7175;51.978;5.330;2023-02-01T01:26:14;48.27;;;45.27;;
14187;SDS011;7175;51.978;5.330;2023-02-01T01:28:44;46.90;;;44.00;;
14187;SDS011;7175;51.978;5.330;2023-02-01T01:31:13;47.60;;;44.60;;
14187;SDS011;7175;51.978;5.330;2023-02-01T01:33:43;46.50;;;43.60;;
14187;SDS011;7175;51.978;5.330;2023-02-01T01:36:12;59.13;;;55.63;;
14187;SDS011;7175;51.978;5.330;2023-02-01T01:38:41;47.27;;;44.37;;
14187;SDS011;7175;51.978;5.330;2023-02-01T01:41:11;46.67;;;43.77;;
14187;SDS011;7175;51.978;5.330;2023-02-01T01:43:47;49.40;;;45.07;;
14187;SDS011;7175;51.978;5.330;2023-02-01T01:46:20;48.33;;;45.33;;
14187;SDS011;7175;51.978;5.330;2023-02-01T01:48:50;59.73;;;56.13;;
14187;SDS011;7175;51.978;5.330;2023-02-01T01:51:23;62.53;;;58.13;;
14187;SDS011;7175;51.978;5.330;2023-02-01T01:53:56;60.90;;;57.30;;
14187;SDS011;7175;51.978;5.330;2023-02-01T01:56:28;62.03;;;58.33;;
14187;SDS011;7175;51.978;5.330;2023-02-01T01:58:59;60.30;;;56.70;;
14187;SDS011;7175;51.978;5.330;2023-02-01T02:01:28;61.60;;;57.90;;
14187;SDS011;7175;51.978;5.330;2023-02-01T02:03:56;63.23;;;59.47;;
14187;SDS011;7175;51.978;5.330;2023-02-01T02:06:28;62.83;;;59.07;;
14187;SDS011;7175;51.978;5.330;2023-02-01T02:09:05;62.17;;;58.47;;
14187;SDS011;7175;51.978;5.330;2023-02-01T02:11:33;63.50;;;59.70;;
14187;SDS011;7175;51.978;5.330;2023-02-01T02:14:01;63.77;;;59.97;;
14187;SDS011;7175;51.978;5.330;2023-02-01T02:19:40;67.57;;;63.57;;
14187;SDS011;7175;51.978;5.330;2023-02-01T02:22:43;66.93;;;62.93;;
14187;SDS011;7175;51.978;5.330;2023-02-01T02:25:51;66.73;;;62.73;;
14187;SDS011;7175;51.978;5.330;2023-02-01T02:28:41;67.10;;;63.10;;
14187;SDS011;7175;51.978;5.330;2023-02-01T02:34:33;64.03;;;60.20;;
14187;SDS011;7175;51.978;5.330;2023-02-01T02:37:09;50.90;;;47.80;;
14187;SDS011;7175;51.978;5.330;2023-02-01T02:39:46;51.37;;;48.23;;
14187;SDS011;7175;51.978;5.330;2023-02-01T02:42:20;49.17;;;46.17;;
14187;SDS011;7175;51.978;5.330;2023-02-01T02:45:15;49.40;;;46.40;;
14187;SDS011;7175;51.978;5.330;2023-02-01T02:48:08;47.00;;;44.10;;
14187;SDS011;7175;51.978;5.330;2023-02-01T02:50:46;44.13;;;41.33;;
14187;SDS011;7175;51.978;5.330;2023-02-01T02:53:37;42.43;;;39.73;;
14187;SDS011;7175;51.978;5.330;2023-02-01T02:56:28;46.70;;;43.80;;
14187;SDS011;7175;51.978;5.330;2023-02-01T02:59:15;43.03;;;40.33;;
14187;SDS011;7175;51.978;5.330;2023-02-01T03:02:04;46.83;;;43.53;;
14187;SDS011;7175;51.978;5.330;2023-02-01T03:04:51;42.80;;;40.10;;
14187;SDS011;7175;51.978;5.330;2023-02-01T03:10:24;40.33;;;37.73;;
14187;SDS011;7175;51.978;5.330;2023-02-01T03:13:00;40.43;;;37.80;;
14187;SDS011;7175;51.978;5.330;2023-02-01T03:15:32;38.70;;;36.10;;
14187;SDS011;7175;51.978;5.330;2023-02-01T03:18:06;37.60;;;35.10;;
14187;SDS011;7175;51.978;5.330;2023-02-01T03:20:39;36.87;;;34.37;;
14187;SDS011;7175;51.978;5.330;2023-02-01T03:23:13;35.23;;;32.83;;
14187;SDS011;7175;51.978;5.330;2023-02-01T03:25:45;35.90;;;33.50;;
14187;SDS011;7175;51.978;5.330;2023-02-01T03:28:17;36.17;;;33.77;;
14187;SDS011;7175;51.978;5.330;2023-02-01T03:30:47;34.90;;;32.60;;
14187;SDS011;7175;51.978;5.330;2023-02-01T03:33:17;33.37;;;31.07;;
14187;SDS011;7175;51.978;5.330;2023-02-01T03:35:52;32.90;;;30.70;;
14187;SDS011;7175;51.978;5.330;2023-02-01T03:38:28;32.53;;;30.33;;
14187;SDS011;7175;51.978;5.330;2023-02-01T03:41:02;32.87;;;30.67;;
14187;SDS011;7175;51.978;5.330;2023-02-01T03:43:37;33.17;;;30.97;;
14187;SDS011;7175;51.978;5.330;2023-02-01T03:46:17;32.77;;;30.57;;
14187;SDS011;7175;51.978;5.330;2023-02-01T03:48:48;32.67;;;30.47;;
14187;SDS011;7175;51.978;5.330;2023-02-01T03:51:19;33.07;;;30.87;;
14187;SDS011;7175;51.978;5.330;2023-02-01T03:53:50;32.90;;;30.67;;
14187;SDS011;7175;51.978;5.330;2023-02-01T03:56:21;32.97;;;30.77;;
14187;SDS011;7175;51.978;5.330;2023-02-01T03:58:52;33.80;;;31.53;;
14187;SDS011;7175;51.978;5.330;2023-02-01T04:01:26;33.53;;;31.33;;
14187;SDS011;7175;51.978;5.330;2023-02-01T04:03:56;35.07;;;32.77;;
14187;SDS011;7175;51.978;5.330;2023-02-01T04:06:24;35.47;;;33.17;;
14187;SDS011;7175;51.978;5.330;2023-02-01T04:08:54;36.87;;;34.47;;
14187;SDS011;7175;51.978;5.330;2023-02-01T04:11:22;38.13;;;35.73;;
14187;SDS011;7175;51.978;5.330;2023-02-01T04:13:50;41.23;;;38.63;;
14187;SDS011;7175;51.978;5.330;2023-02-01T04:16:18;39.00;;;36.50;;
14187;SDS011;7175;51.978;5.330;2023-02-01T04:18:46;40.30;;;37.77;;
14187;SDS011;7175;51.978;5.330;2023-02-01T04:21:15;40.60;;;38.00;;
14187;SDS011;7175;51.978;5.330;2023-02-01T04:23:43;41.30;;;38.70;;
14187;SDS011;7175;51.978;5.330;2023-02-01T04:26:12;41.67;;;39.07;;
14187;SDS011;7175;51.978;5.330;2023-02-01T04:28:42;40.80;;;38.20;;
14187;SDS011;7175;51.978;5.330;2023-02-01T04:31:10;41.43;;;38.83;;
14187;SDS011;7175;51.978;5.330;2023-02-01T04:33:39;38.93;;;36.43;;
14187;SDS011;7175;51.978;5.330;2023-02-01T04:36:07;39.03;;;36.53;;
14187;SDS011;7175;51.978;5.330;2023-02-01T04:38:35;37.90;;;35.30;;
14187;SDS011;7175;51.978;5.330;2023-02-01T04:41:04;35.47;;;33.17;;
14187;SDS011;7175;51.978;5.330;2023-02-01T04:43:33;36.30;;;33.90;;
14187;SDS011;7175;51.978;5.330;2023-02-01T04:46:01;35.73;;;33.40;;
14187;SDS011;7175;51.978;5.330;2023-02-01T04:48:29;35.77;;;33.47;;
14187;SDS011;7175;51.978;5.330;2023-02-01T04:50:57;35.13;;;32.83;;
14187;SDS011;7175;51.978;5.330;2023-02-01T04:53:25;32.97;;;30.77;;
14187;SDS011;7175;51.978;5.330;2023-02-01T04:55:54;31.97;;;29.80;;
14187;SDS011;7175;51.978;5.330;2023-02-01T04:58:23;31.93;;;29.83;;
14187;SDS011;7175;51.978;5.330;2023-02-01T05:00:53;31.07;;;28.97;;
14187;SDS011;7175;51.978;5.330;2023-02-01T05:03:21;30.80;;;28.70;;
14187;SDS011;7175;51.978;5.330;2023-02-01T05:05:49;30.70;;;28.60;;
14187;SDS011;7175;51.978;5.330;2023-02-01T05:08:19;30.30;;;28.20;;
14187;SDS011;7175;51.978;5.330;2023-02-01T05:10:48;29.33;;;27.23;;
14187;SDS011;7175;51.978;5.330;2023-02-01T05:13:16;29.33;;;27.23;;
14187;SDS011;7175;51.978;5.330;2023-02-01T05:16:04;29.00;;;26.90;;
14187;SDS011;7175;51.978;5.330;2023-02-01T05:18:33;29.40;;;27.33;;
14187;SDS011;7175;51.978;5.330;2023-02-01T05:21:01;28.97;;;26.97;;
14187;SDS011;7175;51.978;5.330;2023-02-01T05:23:29;28.50;;;26.50;;
14187;SDS011;7175;51.978;5.330;2023-02-01T05:26:00;27.27;;;25.27;;
14187;SDS011;7175;51.978;5.330;2023-02-01T05:28:29;28.20;;;26.20;;
14187;SDS011;7175;51.978;5.330;2023-02-01T05:30:57;28.17;;;26.17;;
14187;SDS011;7175;51.978;5.330;2023-02-01T05:33:26;30.13;;;27.60;;
14187;SDS011;7175;51.978;5.330;2023-02-01T05:35:55;29.30;;;27.30;;
14187;SDS011;7175;51.978;5.330;2023-02-01T05:38:23;29.03;;;27.00;;
14187;SDS011;7175;51.978;5.330;2023-02-01T05:40:51;29.00;;;26.90;;
14187;SDS011;7175;51.978;5.330;2023-02-01T05:43:19;28.77;;;26.77;;
14187;SDS011;7175;51.978;5.330;2023-02-01T05:45:47;29.50;;;27.40;;
14187;SDS011;7175;51.978;5.330;2023-02-01T05:48:15;29.40;;;27.30;;
14187;SDS011;7175;51.978;5.330;2023-02-01T05:50:45;31.00;;;28.40;;
14187;SDS011;7175;51.978;5.330;2023-02-01T05:53:13;30.47;;;28.30;;
14187;SDS011;7175;51.978;5.330;2023-02-01T05:55:41;31.70;;;29.50;;
14187;SDS011;7175;51.978;5.330;2023-02-01T05:58:10;30.80;;;28.60;;
14187;SDS011;7175;51.978;5.330;2023-02-01T06:00:38;31.47;;;29.27;;
14187;SDS011;7175;51.978;5.330;2023-02-01T06:03:07;31.77;;;29.57;;
14187;SDS011;7175;51.978;5.330;2023-02-01T06:05:35;31.70;;;29.50;;
14187;SDS011;7175;51.978;5.330;2023-02-01T06:08:05;30.57;;;28.37;;
14187;SDS011;7175;51.978;5.330;2023-02-01T06:10:33;30.83;;;28.63;;
14187;SDS011;7175;51.978;5.330;2023-02-01T06:13:02;29.47;;;27.37;;
14187;SDS011;7175;51.978;5.330;2023-02-01T06:15:30;28.00;;;25.90;;
14187;SDS011;7175;51.978;5.330;2023-02-01T06:17:58;28.20;;;26.10;;
14187;SDS011;7175;51.978;5.330;2023-02-01T06:20:26;27.77;;;25.67;;
14187;SDS011;7175;51.978;5.330;2023-02-01T06:22:54;27.93;;;25.83;;
14187;SDS011;7175;51.978;5.330;2023-02-01T06:25:24;26.90;;;24.90;;
14187;SDS011;7175;51.978;5.330;2023-02-01T06:27:52;27.33;;;25.23;;
14187;SDS011;7175;51.978;5.330;2023-02-01T06:30:20;27.60;;;25.50;;
14187;SDS011;7175;51.978;5.330;2023-02-01T06:32:50;27.40;;;25.30;;
14187;SDS011;7175;51.978;5.330;2023-02-01T06:35:20;28.77;;;26.67;;
14187;SDS011;7175;51.978;5.330;2023-02-01T06:37:49;29.50;;;27.30;;
14187;SDS011;7175;51.978;5.330;2023-02-01T06:40:18;30.90;;;28.70;;
14187;SDS011;7175;51.978;5.330;2023-02-01T06:42:50;30.40;;;28.17;;
14187;SDS011;7175;51.978;5.330;2023-02-01T06:45:18;30.33;;;28.03;;
14187;SDS011;7175;51.978;5.330;2023-02-01T06:47:47;30.37;;;28.07;;
14187;SDS011;7175;51.978;5.330;2023-02-01T06:50:15;31.70;;;29.40;;
14187;SDS011;7175;51.978;5.330;2023-02-01T06:52:44;32.23;;;29.93;;
14187;SDS011;7175;51.978;5.330;2023-02-01T06:55:12;32.40;;;30.10;;
14187;SDS011;7175;51.978;5.330;2023-02-01T06:57:40;33.03;;;30.73;;
14187;SDS011;7175;51.978;5.330;2023-02-01T07:00:10;33.33;;;30.93;;
14187;SDS011;7175;51.978;5.330;2023-02-01T07:02:38;33.17;;;30.77;;
14187;SDS011;7175;51.978;5.330;2023-02-01T07:05:07;34.20;;;31.70;;
14187;SDS011;7175;51.978;5.330;2023-02-01T07:07:36;32.63;;;30.13;;
14187;SDS011;7175;51.978;5.330;2023-02-01T07:10:04;33.90;;;31.30;;
14187;SDS011;7175;51.978;5.330;2023-02-01T07:12:33;33.67;;;31.17;;
14187;SDS011;7175;51.978;5.330;2023-02-01T07:15:02;37.75;;;34.85;;
14187;SDS011;7175;51.978;5.330;2023-02-01T07:17:32;37.77;;;34.97;;
14187;SDS011;7175;51.978;5.330;2023-02-01T07:20:00;37.30;;;34.50;;
14187;SDS011;7175;51.978;5.330;2023-02-01T07:22:28;35.23;;;32.53;;
14187;SDS011;7175;51.978;5.330;2023-02-01T07:24:57;34.17;;;31.57;;
14187;SDS011;7175;51.978;5.330;2023-02-01T07:27:25;34.23;;;31.63;;
14187;SDS011;7175;51.978;5.330;2023-02-01T07:29:53;37.60;;;34.70;;
14187;SDS011;7175;51.978;5.330;2023-02-01T07:32:23;39.60;;;36.60;;
14187;SDS011;7175;51.978;5.330;2023-02-01T07:34:52;36.73;;;34.03;;
14187;SDS011;7175;51.978;5.330;2023-02-01T07:37:21;34.33;;;31.73;;
14187;SDS011;7175;51.978;5.330;2023-02-01T07:39:50;32.80;;;30.30;;
14187;SDS011;7175;51.978;5.330;2023-02-01T07:42:18;33.37;;;30.77;;
14187;SDS011;7175;51.978;5.330;2023-02-01T07:44:46;34.60;;;32.00;;
14187;SDS011;7175;51.978;5.330;2023-02-01T07:47:14;35.10;;;32.50;;
14187;SDS011;7175;51.978;5.330;2023-02-01T07:49:43;31.73;;;29.23;;
14187;SDS011;7175;51.978;5.330;2023-02-01T07:52:12;32.90;;;30.30;;
14187;SDS011;7175;51.978;5.330;2023-02-01T07:54:43;32.17;;;29.67;;
14187;SDS011;7175;51.978;5.330;2023-02-01T07:57:11;30.87;;;28.47;;
14187;SDS011;7175;51.978;5.330;2023-02-01T07:59:39;32.80;;;30.20;;
14187;SDS011;7175;51.978;5.330;2023-02-01T08:02:27;32.60;;;30.10;;
14187;SDS011;7175;51.978;5.330;2023-02-01T08:04:54;32.70;;;30.20;;
14187;SDS011;7175;51.978;5.330;2023-02-01T08:07:24;32.00;;;29.50;;
14187;SDS011;7175;51.978;5.330;2023-02-01T08:09:52;30.93;;;28.53;;
14187;SDS011;7175;51.978;5.330;2023-02-01T08:12:20;30.67;;;28.27;;
14187;SDS011;7175;51.978;5.330;2023-02-01T08:14:50;32.17;;;29.67;;
14187;SDS011;7175;51.978;5.330;2023-02-01T08:17:19;31.60;;;29.10;;
14187;SDS011;7175;51.978;5.330;2023-02-01T08:19:47;31.73;;;29.23;;
14187;SDS011;7175;51.978;5.330;2023-02-01T08:22:15;32.23;;;29.67;;
14187;SDS011;7175;51.978;5.330;2023-02-01T08:24:47;32.90;;;30.33;;
14187;SDS011;7175;51.978;5.330;2023-02-01T08:27:15;31.87;;;29.37;;
14187;SDS011;7175;51.978;5.330;2023-02-01T08:29:43;32.73;;;30.13;;
14187;SDS011;7175;51.978;5.330;2023-02-01T08:32:11;32.03;;;29.47;;
14187;SDS011;7175;51.978;5.330;2023-02-01T08:34:39;33.83;;;31.23;;
14187;SDS011;7175;51.978;5.330;2023-02-01T08:37:07;35.57;;;32.87;;
14187;SDS011;7175;51.978;5.330;2023-02-01T08:39:36;34.00;;;31.40;;
14187;SDS011;7175;51.978;5.330;2023-02-01T08:42:05;35.73;;;33.03;;
14187;SDS011;7175;51.978;5.330;2023-02-01T08:44:51;37.07;;;34.37;;
14187;SDS011;7175;51.978;5.330;2023-02-01T08:47:19;35.40;;;32.80;;
14187;SDS011;7175;51.978;5.330;2023-02-01T08:49:47;35.77;;;33.07;;
14187;SDS011;7175;51.978;5.330;2023-02-01T08:52:15;36.80;;;33.73;;
14187;SDS011;7175;51.978;5.330;2023-02-01T08:54:43;34.57;;;31.97;;
14187;SDS011;7175;51.978;5.330;2023-02-01T08:57:13;34.10;;;31.50;;
14187;SDS011;7175;51.978;5.330;2023-02-01T08:59:41;32.07;;;29.57;;
14187;SDS011;7175;51.978;5.330;2023-02-01T09:02:11;32.73;;;30.23;;
14187;SDS011;7175;51.978;5.330;2023-02-01T09:04:40;30.17;;;27.77;;
14187;SDS011;7175;51.978;5.330;2023-02-01T09:07:09;31.80;;;29.27;;
14187;SDS011;7175;51.978;5.330;2023-02-01T09:09:39;35.87;;;31.80;;
14187;SDS011;7175;51.978;5.330;2023-02-01T09:12:08;29.17;;;26.87;;
14187;SDS011;7175;51.978;5.330;2023-02-01T09:14:37;28.87;;;26.67;;
14187;SDS011;7175;51.978;5.330;2023-02-01T09:17:06;26.90;;;24.70;;
14187;SDS011;7175;51.978;5.330;2023-02-01T09:19:34;26.07;;;23.87;;
14187;SDS011;7175;51.978;5.330;2023-02-01T09:22:03;24.87;;;22.87;;
14187;SDS011;7175;51.978;5.330;2023-02-01T09:24:31;23.87;;;21.87;;
14187;SDS011;7175;51.978;5.330;2023-02-01T09:27:00;23.47;;;21.57;;
14187;SDS011;7175;51.978;5.330;2023-02-01T09:29:29;24.00;;;21.90;;
14187;SDS011;7175;51.978;5.330;2023-02-01T09:31:59;22.50;;;20.60;;
14187;SDS011;7175;51.978;5.330;2023-02-01T09:34:30;21.83;;;20.03;;
14187;SDS011;7175;51.978;5.330;2023-02-01T09:36:59;21.80;;;19.90;;
14187;SDS011;7175;51.978;5.330;2023-02-01T09:39:28;21.37;;;19.47;;
14187;SDS011;7175;51.978;5.330;2023-02-01T09:41:59;20.83;;;19.03;;
14187;SDS011;7175;51.978;5.330;2023-02-01T09:44:43;20.80;;;19.00;;
14187;SDS011;7175;51.978;5.330;2023-02-01T09:47:23;22.87;;;20.83;;
14187;SDS011;7175;51.978;5.330;2023-02-01T09:49:55;21.00;;;19.20;;
14187;SDS011;7175;51.978;5.330;2023-02-01T09:52:27;20.80;;;19.00;;
14187;SDS011;7175;51.978;5.330;2023-02-01T09:55:03;22.10;;;20.27;;
14187;SDS011;7175;51.978;5.330;2023-02-01T09:57:40;20.20;;;18.50;;
14187;SDS011;7175;51.978;5.330;2023-02-01T10:00:16;20.47;;;18.77;;
14187;SDS011;7175;51.978;5.330;2023-02-01T10:02:50;20.70;;;19.00;;
14187;SDS011;7175;51.978;5.330;2023-02-01T10:05:23;20.40;;;18.70;;
14187;SDS011;7175;51.978;5.330;2023-02-01T10:08:11;21.73;;;19.83;;
14187;SDS011;7175;51.978;5.330;2023-02-01T10:10:49;20.17;;;18.47;;
14187;SDS011;7175;51.978;5.330;2023-02-01T10:13:22;20.03;;;18.33;;
14187;SDS011;7175;51.978;5.330;2023-02-01T10:16:15;21.10;;;19.40;;
14187;SDS011;7175;51.978;5.330;2023-02-01T10:18:54;20.50;;;18.80;;
14187;SDS011;7175;51.978;5.330;2023-02-01T10:24:28;20.60;;;18.90;;
14187;SDS011;7175;51.978;5.330;2023-02-01T10:27:24;21.60;;;19.80;;
14187;SDS011;7175;51.978;5.330;2023-02-01T10:29:58;21.93;;;20.13;;
14187;SDS011;7175;51.978;5.330;2023-02-01T10:32:29;22.23;;;20.43;;
14187;SDS011;7175;51.978;5.330;2023-02-01T10:35:00;23.03;;;21.13;;
14187;SDS011;7175;51.978;5.330;2023-02-01T10:37:36;26.23;;;24.03;;
14187;SDS011;7175;51.978;5.330;2023-02-01T10:40:11;23.33;;;21.43;;
14187;SDS011;7175;51.978;5.330;2023-02-01T10:42:44;21.57;;;19.77;;
14187;SDS011;7175;51.978;5.330;2023-02-01T10:45:13;21.20;;;19.40;;
14187;SDS011;7175;51.978;5.330;2023-02-01T10:47:44;20.53;;;18.83;;
14187;SDS011;7175;51.978;5.330;2023-02-01T10:50:19;22.50;;;20.60;;
14187;SDS011;7175;51.978;5.330;2023-02-01T10:52:58;21.47;;;19.67;;
14187;SDS011;7175;51.978;5.330;2023-02-01T10:55:34;21.47;;;19.67;;
14187;SDS011;7175;51.978;5.330;2023-02-01T10:58:07;22.83;;;20.93;;
14187;SDS011;7175;51.978;5.330;2023-02-01T11:00:44;22.07;;;20.27;;
14187;SDS011;7175;51.978;5.330;2023-02-01T11:03:22;20.77;;;18.97;;
14187;SDS011;7175;51.978;5.330;2023-02-01T11:06:02;20.90;;;19.10;;
14187;SDS011;7175;51.978;5.330;2023-02-01T11:08:47;21.20;;;19.40;;
14187;SDS011;7175;51.978;5.330;2023-02-01T11:11:17;21.13;;;19.33;;
14187;SDS011;7175;51.978;5.330;2023-02-01T11:13:51;21.00;;;19.20;;
14187;SDS011;7175;51.978;5.330;2023-02-01T11:16:23;22.40;;;20.23;;
14187;SDS011;7175;51.978;5.330;2023-02-01T11:18:58;20.40;;;18.60;;
14187;SDS011;7175;51.978;5.330;2023-02-01T11:21:27;21.53;;;19.73;;
14187;SDS011;7175;51.978;5.330;2023-02-01T11:23:56;21.10;;;19.30;;
14187;SDS011;7175;51.978;5.330;2023-02-01T11:26:29;23.30;;;21.30;;
14187;SDS011;7175;51.978;5.330;2023-02-01T11:28:59;23.23;;;21.23;;
14187;SDS011;7175;51.978;5.330;2023-02-01T11:31:31;24.37;;;22.27;;
14187;SDS011;7175;51.978;5.330;2023-02-01T11:34:05;24.97;;;22.87;;
14187;SDS011;7175;51.978;5.330;2023-02-01T11:36:36;26.10;;;23.90;;
14187;SDS011;7175;51.978;5.330;2023-02-01T11:41:58;27.07;;;24.87;;
14187;SDS011;7175;51.978;5.330;2023-02-01T11:44:31;31.73;;;28.70;;
14187;SDS011;7175;51.978;5.330;2023-02-01T11:49:52;24.33;;;22.23;;
14187;SDS011;7175;51.978;5.330;2023-02-01T11:52:37;23.97;;;21.97;;
14187;SDS011;7175;51.978;5.330;2023-02-01T11:55:23;25.30;;;23.20;;
14187;SDS011;7175;51.978;5.330;2023-02-01T11:58:06;23.90;;;21.90;;
14187;SDS011;7175;51.978;5.330;2023-02-01T12:00:49;22.03;;;20.13;;
14187;SDS011;7175;51.978;5.330;2023-02-01T12:06:21;22.07;;;20.17;;
14187;SDS011;7175;51.978;5.330;2023-02-01T12:09:11;21.40;;;19.50;;
14187;SDS011;7175;51.978;5.330;2023-02-01T12:11:59;20.57;;;18.87;;
14187;SDS011;7175;51.978;5.330;2023-02-01T12:14:39;20.70;;;19.00;;
14187;SDS011;7175;51.978;5.330;2023-02-01T12:17:20;21.10;;;19.30;;
14187;SDS011;7175;51.978;5.330;2023-02-01T12:20:15;22.07;;;20.07;;
14187;SDS011;7175;51.978;5.330;2023-02-01T12:22:55;20.27;;;18.57;;
14187;SDS011;7175;51.978;5.330;2023-02-01T12:25:52;20.90;;;19.10;;
14187;SDS011;7175;51.978;5.330;2023-02-01T12:28:34;19.30;;;17.70;;
14187;SDS011;7175;51.978;5.330;2023-02-01T12:31:25;24.20;;;20.63;;
14187;SDS011;7175;51.978;5.330;2023-02-01T12:34:26;19.20;;;17.60;;
14187;SDS011;7175;51.978;5.330;2023-02-01T12:37:18;19.90;;;18.30;;
14187;SDS011;7175;51.978;5.330;2023-02-01T12:39:59;19.37;;;17.73;;
14187;SDS011;7175;51.978;5.330;2023-02-01T12:42:40;19.97;;;18.37;;
14187;SDS011;7175;51.978;5.330;2023-02-01T12:45:13;19.53;;;17.93;;
14187;SDS011;7175;51.978;5.330;2023-02-01T12:47:49;19.37;;;17.77;;
14187;SDS011;7175;51.978;5.330;2023-02-01T12:50:24;19.90;;;18.30;;
14187;SDS011;7175;51.978;5.330;2023-02-01T12:53:07;19.27;;;17.67;;
14187;SDS011;7175;51.978;5.330;2023-02-01T12:56:01;19.40;;;17.80;;
14187;SDS011;7175;51.978;5.330;2023-02-01T12:58:38;19.77;;;18.17;;
14187;SDS011;7175;51.978;5.330;2023-02-01T13:01:12;19.60;;;18.00;;
14187;SDS011;7175;51.978;5.330;2023-02-01T13:03:50;19.50;;;17.90;;
14187;SDS011;7175;51.978;5.330;2023-02-01T13:06:24;20.40;;;18.67;;
14187;SDS011;7175;51.978;5.330;2023-02-01T13:08:57;19.80;;;18.10;;
14187;SDS011;7175;51.978;5.330;2023-02-01T13:11:33;20.07;;;18.37;;
14187;SDS011;7175;51.978;5.330;2023-02-01T13:14:07;20.30;;;18.60;;
14187;SDS011;7175;51.978;5.330;2023-02-01T13:16:47;19.70;;;18.10;;
14187;SDS011;7175;51.978;5.330;2023-02-01T13:19:19;20.40;;;18.70;;
14187;SDS011;7175;51.978;5.330;2023-02-01T13:21:51;20.10;;;18.50;;
14187;SDS011;7175;51.978;5.330;2023-02-01T13:24:26;20.30;;;18.60;;
14187;SDS011;7175;51.978;5.330;2023-02-01T13:27:00;19.60;;;18.00;;
14187;SDS011;7175;51.978;5.330;2023-02-01T13:29:29;19.30;;;17.70;;
14187;SDS011;7175;51.978;5.330;2023-02-01T13:32:13;19.80;;;18.20;;
14187;SDS011;7175;51.978;5.330;2023-02-01T13:38:26;19.30;;;17.70;;
14187;SDS011;7175;51.978;5.330;2023-02-01T13:41:19;19.37;;;17.77;;
14187;SDS011;7175;51.978;5.330;2023-02-01T13:43:55;18.77;;;17.27;;
14187;SDS011;7175;51.978;5.330;2023-02-01T13:46:28;19.17;;;17.67;;
14187;SDS011;7175;51.978;5.330;2023-02-01T13:48:58;21.07;;;19.13;;
14187;SDS011;7175;51.978;5.330;2023-02-01T13:51:32;20.10;;;18.50;;
14187;SDS011;7175;51.978;5.330;2023-02-01T13:54:21;20.60;;;18.90;;
14187;SDS011;7175;51.978;5.330;2023-02-01T13:56:53;19.57;;;17.97;;
14187;SDS011;7175;51.978;5.330;2023-02-01T14:02:50;18.70;;;17.20;;
14187;SDS011;7175;51.978;5.330;2023-02-01T14:08:25;19.93;;;18.33;;
14187;SDS011;7175;51.978;5.330;2023-02-01T14:11:30;21.20;;;18.93;;
14187;SDS011;7175;51.978;5.330;2023-02-01T14:23:23;20.10;;;18.40;;
14187;SDS011;7175;51.978;5.330;2023-02-01T14:26:03;20.63;;;18.93;;
14187;SDS011;7175;51.978;5.330;2023-02-01T14:28:39;20.60;;;18.90;;
14187;SDS011;7175;51.978;5.330;2023-02-01T14:31:18;20.53;;;18.83;;
14187;SDS011;7175;51.978;5.330;2023-02-01T14:34:02;20.10;;;18.50;;
14187;SDS011;7175;51.978;5.330;2023-02-01T14:36:43;20.33;;;18.63;;
14187;SDS011;7175;51.978;5.330;2023-02-01T14:39:22;20.70;;;19.00;;
14187;SDS011;7175;51.978;5.330;2023-02-01T14:41:54;20.37;;;18.67;;
14187;SDS011;7175;51.978;5.330;2023-02-01T14:44:29;20.87;;;19.17;;
14187;SDS011;7175;51.978;5.330;2023-02-01T14:47:02;20.73;;;19.03;;
14187;SDS011;7175;51.978;5.330;2023-02-01T14:49:53;20.40;;;18.70;;
14187;SDS011;7175;51.978;5.330;2023-02-01T14:52:28;19.33;;;17.73;;
14187;SDS011;7175;51.978;5.330;2023-02-01T14:55:03;19.73;;;18.13;;
14187;SDS011;7175;51.978;5.330;2023-02-01T14:57:34;21.67;;;19.87;;
14187;SDS011;7175;51.978;5.330;2023-02-01T15:00:08;24.43;;;22.40;;
14187;SDS011;7175;51.978;5.330;2023-02-01T15:02:47;24.27;;;22.10;;
14187;SDS011;7175;51.978;5.330;2023-02-01T15:05:24;24.57;;;22.53;;
14187;SDS011;7175;51.978;5.330;2023-02-01T15:07:57;24.43;;;22.43;;
14187;SDS011;7175;51.978;5.330;2023-02-01T15:10:32;23.17;;;21.17;;
14187;SDS011;7175;51.978;5.330;2023-02-01T15:13:12;24.53;;;22.53;;
14187;SDS011;7175;51.978;5.330;2023-02-01T15:15:59;24.90;;;22.80;;
14187;SDS011;7175;51.978;5.330;2023-02-01T15:18:28;25.20;;;23.10;;
14187;SDS011;7175;51.978;5.330;2023-02-01T15:20:56;23.83;;;21.83;;
14187;SDS011;7175;51.978;5.330;2023-02-01T15:23:45;25.33;;;23.10;;
14187;SDS011;7175;51.978;5.330;2023-02-01T15:26:26;24.70;;;22.60;;
14187;SDS011;7175;51.978;5.330;2023-02-01T15:28:56;23.23;;;21.33;;
14187;SDS011;7175;51.978;5.330;2023-02-01T15:31:31;22.60;;;20.70;;
14187;SDS011;7175;51.978;5.330;2023-02-01T15:34:01;23.03;;;21.13;;
14187;SDS011;7175;51.978;5.330;2023-02-01T15:36:29;22.63;;;20.73;;
14187;SDS011;7175;51.978;5.330;2023-02-01T15:39:11;23.13;;;21.23;;
14187;SDS011;7175;51.978;5.330;2023-02-01T15:41:51;25.07;;;22.90;;
14187;SDS011;7175;51.978;5.330;2023-02-01T15:44:31;24.93;;;22.93;;
14187;SDS011;7175;51.978;5.330;2023-02-01T15:47:05;23.70;;;21.80;;
14187;SDS011;7175;51.978;5.330;2023-02-01T15:49:39;22.90;;;21.00;;